sensor_id;sensor_type;location;lat;lon;timestamp;pressure;altitude;pressure_sealevel;temperature;humidity
6514;BME280;3290;47.716;9.070;2023-08-07T00:00:04;97020.19;;;15.74;84.62
6514;BME280;3290;47.716;9.070;2023-08-07T00:02:29;97018.06;;;15.71;83.62
6514;BME280;3290;47.716;9.070;2023-08-07T00:04:54;97013.31;;;15.73;83.52
6514;BME280;3290;47.716;9.070;2023-08-07T00:07:20;97010.13;;;15.71;83.87
6514;BME280;3290;47.716;9.070;2023-08-07T00:09:45;97018.53;;;15.68;81.58
6514;BME280;3290;47.716;9.070;2023-08-07T00:12:11;97015.44;;;15.55;82.11
6514;BME280;3290;47.716;9.070;2023-08-07T00:14:36;97016.38;;;15.65;83.08
6514;BME280;3290;47.716;9.070;2023-08-07T00:17:01;97010.50;;;15.80;83.30
6514;BME280;3290;47.716;9.070;2023-08-07T00:19:27;97008.47;;;15.87;82.18
6514;BME280;3290;47.716;9.070;2023-08-07T00:21:52;97009.97;;;15.62;83.04
6514;BME280;3290;47.716;9.070;2023-08-07T00:24:18;97006.38;;;15.89;82.76
6514;BME280;3290;47.716;9.070;2023-08-07T00:26:43;96999.06;;;15.74;82.94
6514;BME280;3290;47.716;9.070;2023-08-07T00:29:09;97004.94;;;15.60;82.86
6514;BME280;3290;47.716;9.070;2023-08-07T00:31:34;97004.13;;;15.97;83.02
6514;BME280;3290;47.716;9.070;2023-08-07T00:33:59;97003.63;;;15.62;81.56
6514;BME280;3290;47.716;9.070;2023-08-07T00:36:25;97001.41;;;15.92;82.81
6514;BME280;3290;47.716;9.070;2023-08-07T00:38:53;96994.41;;;15.81;83.25
6514;BME280;3290;47.716;9.070;2023-08-07T00:41:19;96987.47;;;15.97;82.10
6514;BME280;3290;47.716;9.070;2023-08-07T00:43:45;96986.94;;;15.78;83.45
6514;BME280;3290;47.716;9.070;2023-08-07T00:46:10;96988.56;;;16.01;83.68
6514;BME280;3290;47.716;9.070;2023-08-07T00:48:35;96980.41;;;16.02;83.29
6514;BME280;3290;47.716;9.070;2023-08-07T00:51:01;96992.28;;;16.00;83.66
6514;BME280;3290;47.716;9.070;2023-08-07T00:53:28;96982.97;;;15.97;85.10
6514;BME280;3290;47.716;9.070;2023-08-07T00:55:54;96988.31;;;15.81;84.73
6514;BME280;3290;47.716;9.070;2023-08-07T00:58:19;96991.28;;;15.84;84.74
6514;BME280;3290;47.716;9.070;2023-08-07T01:00:45;96983.09;;;16.07;84.50
6514;BME280;3290;47.716;9.070;2023-08-07T01:03:12;96980.22;;;15.87;83.68
6514;BME280;3290;47.716;9.070;2023-08-07T01:05:39;96988.25;;;15.97;84.64
6514;BME280;3290;47.716;9.070;2023-08-07T01:08:04;96986.91;;;15.95;85.41
6514;BME280;3290;47.716;9.070;2023-08-07T01:13:28;96978.44;;;15.71;83.47
6514;BME280;3290;47.716;9.070;2023-08-07T01:15:59;96985.53;;;15.92;83.88
6514;BME280;3290;47.716;9.070;2023-08-07T01:18:27;96984.06;;;15.80;83.81
6514;BME280;3290;47.716;9.070;2023-08-07T01:20:52;96988.94;;;15.66;83.42
6514;BME280;3290;47.716;9.070;2023-08-07T01:23:17;96975.16;;;15.64;84.67
6514;BME280;3290;47.716;9.070;2023-08-07T01:25:43;96978.84;;;15.63;86.03
6514;BME280;3290;47.716;9.070;2023-08-07T01:30:50;96984.97;;;15.69;85.09
6514;BME280;3290;47.716;9.070;2023-08-07T01:33:27;96986.75;;;15.63;84.40
6514;BME280;3290;47.716;9.070;2023-08-07T01:35:58;96993.38;;;15.66;83.64
6514;BME280;3290;47.716;9.070;2023-08-07T01:38:27;96995.78;;;15.67;84.86
6514;BME280;3290;47.716;9.070;2023-08-07T01:40:53;97000.25;;;15.46;86.14
6514;BME280;3290;47.716;9.070;2023-08-07T01:43:19;97000.22;;;15.62;85.70
6514;BME280;3290;47.716;9.070;2023-08-07T01:45:45;96996.34;;;15.69;85.41
6514;BME280;3290;47.716;9.070;2023-08-07T01:48:11;96992.56;;;15.44;86.35
6514;BME280;3290;47.716;9.070;2023-08-07T01:50:38;96992.81;;;15.43;84.33
6514;BME280;3290;47.716;9.070;2023-08-07T01:53:04;96994.66;;;15.42;85.04
6514;BME280;3290;47.716;9.070;2023-08-07T01:55:29;96989.38;;;15.42;85.97
6514;BME280;3290;47.716;9.070;2023-08-07T01:57:55;96993.34;;;15.45;84.68
6514;BME280;3290;47.716;9.070;2023-08-07T02:00:20;97000.81;;;15.48;85.29
6514;BME280;3290;47.716;9.070;2023-08-07T02:02:46;97004.59;;;15.19;85.94
6514;BME280;3290;47.716;9.070;2023-08-07T02:05:12;96999.13;;;15.42;85.81
6514;BME280;3290;47.716;9.070;2023-08-07T02:07:38;96997.22;;;15.21;84.82
6514;BME280;3290;47.716;9.070;2023-08-07T02:10:03;97013.84;;;15.38;84.78
6514;BME280;3290;47.716;9.070;2023-08-07T02:12:29;97010.88;;;15.51;84.44
6514;BME280;3290;47.716;9.070;2023-08-07T02:14:58;97016.16;;;15.51;84.70
6514;BME280;3290;47.716;9.070;2023-08-07T02:17:24;97011.75;;;15.56;84.38
6514;BME280;3290;47.716;9.070;2023-08-07T02:19:50;97021.72;;;15.33;85.15
6514;BME280;3290;47.716;9.070;2023-08-07T02:22:15;97018.34;;;15.21;86.77
6514;BME280;3290;47.716;9.070;2023-08-07T02:24:40;97017.97;;;15.01;86.66
6514;BME280;3290;47.716;9.070;2023-08-07T02:27:06;97017.13;;;15.45;86.08
6514;BME280;3290;47.716;9.070;2023-08-07T02:29:31;97017.03;;;15.40;86.83
6514;BME280;3290;47.716;9.070;2023-08-07T02:32:02;97029.84;;;15.48;86.96
6514;BME280;3290;47.716;9.070;2023-08-07T02:34:30;97018.09;;;15.39;86.67
6514;BME280;3290;47.716;9.070;2023-08-07T02:36:56;97022.97;;;15.30;87.42
6514;BME280;3290;47.716;9.070;2023-08-07T02:39:22;97017.59;;;15.25;87.28
6514;BME280;3290;47.716;9.070;2023-08-07T02:41:48;97021.72;;;15.33;89.65
6514;BME280;3290;47.716;9.070;2023-08-07T02:44:13;97021.22;;;15.52;88.50
6514;BME280;3290;47.716;9.070;2023-08-07T02:46:38;97021.38;;;15.46;88.40
6514;BME280;3290;47.716;9.070;2023-08-07T02:49:04;97026.56;;;15.41;87.82
6514;BME280;3290;47.716;9.070;2023-08-07T02:51:30;97022.09;;;15.25;87.09
6514;BME280;3290;47.716;9.070;2023-08-07T02:53:55;97021.13;;;15.47;87.27
6514;BME280;3290;47.716;9.070;2023-08-07T02:56:20;97025.72;;;15.19;89.03
6514;BME280;3290;47.716;9.070;2023-08-07T02:58:46;97019.63;;;15.35;87.04
6514;BME280;3290;47.716;9.070;2023-08-07T03:01:11;97028.72;;;15.11;87.36
6514;BME280;3290;47.716;9.070;2023-08-07T03:03:36;97030.31;;;15.45;86.91
6514;BME280;3290;47.716;9.070;2023-08-07T03:06:03;97033.66;;;14.91;88.93
6514;BME280;3290;47.716;9.070;2023-08-07T03:08:28;97039.63;;;15.15;89.44
6514;BME280;3290;47.716;9.070;2023-08-07T03:10:55;97045.59;;;15.10;89.71
6514;BME280;3290;47.716;9.070;2023-08-07T03:13:21;97036.13;;;14.98;88.91
6514;BME280;3290;47.716;9.070;2023-08-07T03:15:46;97054.19;;;14.89;90.90
6514;BME280;3290;47.716;9.070;2023-08-07T03:18:14;97051.56;;;14.89;89.84
6514;BME280;3290;47.716;9.070;2023-08-07T03:20:39;97042.75;;;14.84;88.40
6514;BME280;3290;47.716;9.070;2023-08-07T03:23:05;97055.78;;;14.90;89.23
6514;BME280;3290;47.716;9.070;2023-08-07T03:25:30;97041.41;;;14.98;88.50
6514;BME280;3290;47.716;9.070;2023-08-07T03:27:55;97049.13;;;14.72;89.70
6514;BME280;3290;47.716;9.070;2023-08-07T03:30:21;97048.19;;;14.78;90.19
6514;BME280;3290;47.716;9.070;2023-08-07T03:32:46;97045.31;;;14.79;90.69
6514;BME280;3290;47.716;9.070;2023-08-07T03:35:12;97042.53;;;15.02;90.60
6514;BME280;3290;47.716;9.070;2023-08-07T03:37:37;97041.16;;;14.99;89.45
6514;BME280;3290;47.716;9.070;2023-08-07T03:40:03;97047.06;;;15.18;89.96
6514;BME280;3290;47.716;9.070;2023-08-07T03:42:28;97051.00;;;15.04;90.85
6514;BME280;3290;47.716;9.070;2023-08-07T03:44:54;97058.50;;;14.95;91.87
6514;BME280;3290;47.716;9.070;2023-08-07T03:47:19;97058.59;;;15.00;92.00
6514;BME280;3290;47.716;9.070;2023-08-07T03:49:45;97059.25;;;14.91;91.46
6514;BME280;3290;47.716;9.070;2023-08-07T03:52:10;97062.44;;;14.93;91.74
6514;BME280;3290;47.716;9.070;2023-08-07T03:54:35;97074.59;;;14.94;92.05
6514;BME280;3290;47.716;9.070;2023-08-07T03:57:01;97080.69;;;14.94;91.74
6514;BME280;3290;47.716;9.070;2023-08-07T03:59:27;97075.56;;;14.77;92.11
6514;BME280;3290;47.716;9.070;2023-08-07T04:01:52;97079.41;;;14.97;90.51
6514;BME280;3290;47.716;9.070;2023-08-07T04:04:17;97076.00;;;14.85;92.05
6514;BME280;3290;47.716;9.070;2023-08-07T04:06:43;97070.13;;;14.94;90.75
6514;BME280;3290;47.716;9.070;2023-08-07T04:09:09;97080.84;;;14.77;90.88
6514;BME280;3290;47.716;9.070;2023-08-07T04:11:35;97083.69;;;14.86;92.96
6514;BME280;3290;47.716;9.070;2023-08-07T04:14:01;97087.69;;;14.89;92.75
6514;BME280;3290;47.716;9.070;2023-08-07T04:16:26;97094.50;;;15.01;91.94
6514;BME280;3290;47.716;9.070;2023-08-07T04:18:52;97091.13;;;14.89;92.76
6514;BME280;3290;47.716;9.070;2023-08-07T04:21:17;97089.16;;;14.96;92.31
6514;BME280;3290;47.716;9.070;2023-08-07T04:23:43;97085.06;;;14.61;95.13
6514;BME280;3290;47.716;9.070;2023-08-07T04:26:08;97091.31;;;14.99;93.51
6514;BME280;3290;47.716;9.070;2023-08-07T04:28:33;97095.34;;;14.90;94.71
6514;BME280;3290;47.716;9.070;2023-08-07T04:30:59;97087.19;;;14.76;94.46
6514;BME280;3290;47.716;9.070;2023-08-07T04:33:24;97087.34;;;14.85;94.45
6514;BME280;3290;47.716;9.070;2023-08-07T04:35:49;97092.38;;;14.71;95.35
6514;BME280;3290;47.716;9.070;2023-08-07T04:38:16;97086.88;;;14.88;95.76
6514;BME280;3290;47.716;9.070;2023-08-07T04:40:48;97093.47;;;14.75;95.94
6514;BME280;3290;47.716;9.070;2023-08-07T04:43:15;97111.34;;;14.56;95.53
6514;BME280;3290;47.716;9.070;2023-08-07T04:45:41;97094.00;;;14.88;95.04
6514;BME280;3290;47.716;9.070;2023-08-07T04:48:08;97093.59;;;14.80;95.49
6514;BME280;3290;47.716;9.070;2023-08-07T04:50:34;97101.28;;;14.97;94.44
6514;BME280;3290;47.716;9.070;2023-08-07T04:52:59;97104.69;;;14.81;95.46
6514;BME280;3290;47.716;9.070;2023-08-07T04:55:25;97101.69;;;14.89;93.94
6514;BME280;3290;47.716;9.070;2023-08-07T04:57:50;97113.38;;;14.93;94.60
6514;BME280;3290;47.716;9.070;2023-08-07T05:00:19;97103.66;;;14.82;94.84
6514;BME280;3290;47.716;9.070;2023-08-07T05:02:44;97115.81;;;14.83;95.11
6514;BME280;3290;47.716;9.070;2023-08-07T05:05:10;97106.31;;;15.10;95.53
6514;BME280;3290;47.716;9.070;2023-08-07T05:07:35;97107.06;;;14.94;94.97
6514;BME280;3290;47.716;9.070;2023-08-07T05:10:02;97101.28;;;14.97;95.01
6514;BME280;3290;47.716;9.070;2023-08-07T05:12:28;97101.78;;;14.94;94.79
6514;BME280;3290;47.716;9.070;2023-08-07T05:14:53;97104.94;;;14.80;95.96
6514;BME280;3290;47.716;9.070;2023-08-07T05:17:18;97115.25;;;15.09;94.25
6514;BME280;3290;47.716;9.070;2023-08-07T05:19:44;97102.25;;;15.19;93.58
6514;BME280;3290;47.716;9.070;2023-08-07T05:22:09;97112.59;;;15.37;92.70
6514;BME280;3290;47.716;9.070;2023-08-07T05:24:34;97102.19;;;15.03;94.27
6514;BME280;3290;47.716;9.070;2023-08-07T05:27:05;97109.75;;;14.83;95.81
6514;BME280;3290;47.716;9.070;2023-08-07T05:29:31;97111.44;;;15.17;94.57
6514;BME280;3290;47.716;9.070;2023-08-07T05:31:56;97124.13;;;14.76;94.34
6514;BME280;3290;47.716;9.070;2023-08-07T05:34:21;97120.31;;;14.99;93.69
6514;BME280;3290;47.716;9.070;2023-08-07T05:36:47;97122.16;;;14.99;94.88
6514;BME280;3290;47.716;9.070;2023-08-07T05:39:12;97121.72;;;15.02;92.76
6514;BME280;3290;47.716;9.070;2023-08-07T05:41:38;97130.19;;;14.76;92.63
6514;BME280;3290;47.716;9.070;2023-08-07T05:44:04;97127.69;;;14.97;91.86
6514;BME280;3290;47.716;9.070;2023-08-07T05:46:30;97132.59;;;15.05;93.30
6514;BME280;3290;47.716;9.070;2023-08-07T05:48:56;97137.47;;;15.13;91.65
6514;BME280;3290;47.716;9.070;2023-08-07T05:51:21;97145.69;;;15.00;91.89
6514;BME280;3290;47.716;9.070;2023-08-07T05:53:47;97134.75;;;15.08;92.46
6514;BME280;3290;47.716;9.070;2023-08-07T05:56:12;97139.22;;;15.19;93.46
6514;BME280;3290;47.716;9.070;2023-08-07T05:58:37;97142.75;;;14.85;93.26
6514;BME280;3290;47.716;9.070;2023-08-07T06:01:03;97138.06;;;15.15;92.98
6514;BME280;3290;47.716;9.070;2023-08-07T06:03:28;97141.69;;;15.25;91.92
6514;BME280;3290;47.716;9.070;2023-08-07T06:05:53;97135.22;;;15.05;93.92
6514;BME280;3290;47.716;9.070;2023-08-07T06:08:19;97142.50;;;14.98;93.88
6514;BME280;3290;47.716;9.070;2023-08-07T06:10:44;97144.16;;;15.04;93.59
6514;BME280;3290;47.716;9.070;2023-08-07T06:13:10;97137.38;;;15.08;93.71
6514;BME280;3290;47.716;9.070;2023-08-07T06:15:35;97140.66;;;14.99;93.80
6514;BME280;3290;47.716;9.070;2023-08-07T06:18:00;97150.34;;;15.21;93.26
6514;BME280;3290;47.716;9.070;2023-08-07T06:20:26;97146.44;;;15.12;92.40
6514;BME280;3290;47.716;9.070;2023-08-07T06:22:51;97138.22;;;14.97;91.63
6514;BME280;3290;47.716;9.070;2023-08-07T06:25:17;97145.72;;;15.28;92.72
6514;BME280;3290;47.716;9.070;2023-08-07T06:27:44;97152.66;;;15.34;92.73
6514;BME280;3290;47.716;9.070;2023-08-07T06:30:10;97154.66;;;15.27;94.67
6514;BME280;3290;47.716;9.070;2023-08-07T06:32:36;97153.22;;;15.36;92.25
6514;BME280;3290;47.716;9.070;2023-08-07T06:35:02;97152.91;;;15.32;92.20
6514;BME280;3290;47.716;9.070;2023-08-07T06:37:28;97152.41;;;15.19;92.89
6514;BME280;3290;47.716;9.070;2023-08-07T06:39:53;97165.56;;;15.47;91.87
6514;BME280;3290;47.716;9.070;2023-08-07T06:42:18;97163.63;;;15.26;92.66
6514;BME280;3290;47.716;9.070;2023-08-07T06:44:44;97165.25;;;14.88;92.16
6514;BME280;3290;47.716;9.070;2023-08-07T06:47:09;97162.63;;;15.16;92.52
6514;BME280;3290;47.716;9.070;2023-08-07T06:49:34;97162.28;;;15.12;92.20
6514;BME280;3290;47.716;9.070;2023-08-07T06:52:00;97169.88;;;15.09;91.53
6514;BME280;3290;47.716;9.070;2023-08-07T06:54:25;97170.38;;;14.94;91.47
6514;BME280;3290;47.716;9.070;2023-08-07T06:56:51;97170.16;;;15.23;92.41
6514;BME280;3290;47.716;9.070;2023-08-07T06:59:16;97180.66;;;15.07;92.26
6514;BME280;3290;47.716;9.070;2023-08-07T07:01:41;97172.84;;;15.12;92.70
6514;BME280;3290;47.716;9.070;2023-08-07T07:04:06;97174.00;;;15.16;92.43
6514;BME280;3290;47.716;9.070;2023-08-07T07:06:33;97179.69;;;15.13;92.01
6514;BME280;3290;47.716;9.070;2023-08-07T07:08:58;97181.00;;;14.99;92.44
6514;BME280;3290;47.716;9.070;2023-08-07T07:11:23;97190.00;;;14.98;92.51
6514;BME280;3290;47.716;9.070;2023-08-07T07:13:50;97191.13;;;15.02;92.57
6514;BME280;3290;47.716;9.070;2023-08-07T07:16:17;97195.38;;;15.03;91.71
6514;BME280;3290;47.716;9.070;2023-08-07T07:18:43;97193.41;;;14.99;92.12
6514;BME280;3290;47.716;9.070;2023-08-07T07:21:08;97181.34;;;15.14;92.07
6514;BME280;3290;47.716;9.070;2023-08-07T07:23:33;97188.59;;;15.35;91.79
6514;BME280;3290;47.716;9.070;2023-08-07T07:25:59;97188.63;;;15.67;90.99
6514;BME280;3290;47.716;9.070;2023-08-07T07:28:24;97186.66;;;15.30;91.68
6514;BME280;3290;47.716;9.070;2023-08-07T07:30:50;97187.53;;;15.96;90.70
6514;BME280;3290;47.716;9.070;2023-08-07T07:33:16;97185.59;;;15.75;90.61
6514;BME280;3290;47.716;9.070;2023-08-07T07:35:41;97187.34;;;15.54;89.78
6514;BME280;3290;47.716;9.070;2023-08-07T07:38:07;97191.38;;;15.72;89.62
6514;BME280;3290;47.716;9.070;2023-08-07T07:40:34;97180.16;;;15.82;88.33
6514;BME280;3290;47.716;9.070;2023-08-07T07:42:59;97186.53;;;16.18;87.52
6514;BME280;3290;47.716;9.070;2023-08-07T07:45:25;97194.38;;;16.46;86.42
6514;BME280;3290;47.716;9.070;2023-08-07T07:47:50;97186.81;;;16.97;81.60
6514;BME280;3290;47.716;9.070;2023-08-07T07:50:16;97203.94;;;16.68;82.09
6514;BME280;3290;47.716;9.070;2023-08-07T07:52:41;97189.66;;;17.12;82.26
6514;BME280;3290;47.716;9.070;2023-08-07T07:55:06;97185.19;;;16.91;82.46
6514;BME280;3290;47.716;9.070;2023-08-07T07:57:34;97183.88;;;16.72;83.43
6514;BME280;3290;47.716;9.070;2023-08-07T07:59:59;97180.66;;;16.49;85.39
6514;BME280;3290;47.716;9.070;2023-08-07T08:02:26;97191.41;;;16.80;84.20
6514;BME280;3290;47.716;9.070;2023-08-07T08:04:51;97192.66;;;16.99;82.21
6514;BME280;3290;47.716;9.070;2023-08-07T08:07:17;97185.28;;;16.58;81.53
6514;BME280;3290;47.716;9.070;2023-08-07T08:09:43;97194.13;;;17.11;81.52
6514;BME280;3290;47.716;9.070;2023-08-07T08:12:10;97193.66;;;17.14;78.70
6514;BME280;3290;47.716;9.070;2023-08-07T08:14:35;97194.53;;;17.72;77.85
6514;BME280;3290;47.716;9.070;2023-08-07T08:17:00;97195.63;;;17.45;78.18
6514;BME280;3290;47.716;9.070;2023-08-07T08:19:26;97183.22;;;17.24;78.02
6514;BME280;3290;47.716;9.070;2023-08-07T08:21:51;97191.00;;;17.62;76.65
6514;BME280;3290;47.716;9.070;2023-08-07T08:24:16;97180.31;;;17.52;75.29
6514;BME280;3290;47.716;9.070;2023-08-07T08:26:42;97194.09;;;17.85;76.52
6514;BME280;3290;47.716;9.070;2023-08-07T08:29:07;97196.28;;;17.62;77.83
6514;BME280;3290;47.716;9.070;2023-08-07T08:31:33;97187.41;;;18.08;77.50
6514;BME280;3290;47.716;9.070;2023-08-07T08:33:59;97188.16;;;17.99;74.29
6514;BME280;3290;47.716;9.070;2023-08-07T08:36:24;97183.38;;;18.01;74.54
6514;BME280;3290;47.716;9.070;2023-08-07T08:38:50;97189.69;;;17.95;74.42
6514;BME280;3290;47.716;9.070;2023-08-07T08:41:16;97178.50;;;18.19;73.77
6514;BME280;3290;47.716;9.070;2023-08-07T08:43:45;97168.47;;;18.26;74.59
6514;BME280;3290;47.716;9.070;2023-08-07T08:46:14;97179.91;;;18.01;75.58
6514;BME280;3290;47.716;9.070;2023-08-07T08:48:40;97174.25;;;18.64;73.69
6514;BME280;3290;47.716;9.070;2023-08-07T08:51:08;97173.75;;;18.67;71.35
6514;BME280;3290;47.716;9.070;2023-08-07T08:53:34;97182.69;;;18.51;72.25
6514;BME280;3290;47.716;9.070;2023-08-07T08:56:00;97180.88;;;18.57;72.42
6514;BME280;3290;47.716;9.070;2023-08-07T08:58:27;97179.56;;;18.64;72.25
6514;BME280;3290;47.716;9.070;2023-08-07T09:00:53;97175.50;;;18.11;72.82
6514;BME280;3290;47.716;9.070;2023-08-07T09:03:18;97174.34;;;17.97;71.92
6514;BME280;3290;47.716;9.070;2023-08-07T09:05:45;97181.97;;;17.89;75.23
6514;BME280;3290;47.716;9.070;2023-08-07T09:08:11;97187.13;;;17.74;75.96
6514;BME280;3290;47.716;9.070;2023-08-07T09:10:37;97168.94;;;17.56;77.07
6514;BME280;3290;47.716;9.070;2023-08-07T09:13:04;97164.13;;;17.48;76.14
6514;BME280;3290;47.716;9.070;2023-08-07T09:15:35;97169.00;;;17.61;77.87
6514;BME280;3290;47.716;9.070;2023-08-07T09:18:05;97168.56;;;17.74;76.72
6514;BME280;3290;47.716;9.070;2023-08-07T09:20:33;97178.81;;;17.34;80.02
6514;BME280;3290;47.716;9.070;2023-08-07T09:22:59;97185.00;;;17.71;78.22
6514;BME280;3290;47.716;9.070;2023-08-07T09:25:29;97199.91;;;17.51;73.31
6514;BME280;3290;47.716;9.070;2023-08-07T09:27:55;97191.22;;;17.55;76.64
6514;BME280;3290;47.716;9.070;2023-08-07T09:30:26;97191.53;;;17.37;77.74
6514;BME280;3290;47.716;9.070;2023-08-07T09:32:52;97210.00;;;17.27;84.69
6514;BME280;3290;47.716;9.070;2023-08-07T09:35:20;97210.06;;;17.32;85.95
6514;BME280;3290;47.716;9.070;2023-08-07T09:37:46;97215.16;;;17.18;86.32
6514;BME280;3290;47.716;9.070;2023-08-07T09:40:11;97209.84;;;16.75;91.36
6514;BME280;3290;47.716;9.070;2023-08-07T09:42:37;97208.91;;;16.43;92.91
6514;BME280;3290;47.716;9.070;2023-08-07T09:45:21;97205.88;;;15.86;88.45
6514;BME280;3290;47.716;9.070;2023-08-07T09:47:56;97212.69;;;16.31;93.96
6514;BME280;3290;47.716;9.070;2023-08-07T09:50:22;97213.31;;;16.38;92.30
6514;BME280;3290;47.716;9.070;2023-08-07T09:52:48;97219.28;;;16.50;90.08
6514;BME280;3290;47.716;9.070;2023-08-07T09:55:14;97232.69;;;16.11;91.21
6514;BME280;3290;47.716;9.070;2023-08-07T09:57:42;97240.69;;;15.83;87.22
6514;BME280;3290;47.716;9.070;2023-08-07T10:00:09;97234.69;;;15.71;87.53
6514;BME280;3290;47.716;9.070;2023-08-07T10:02:43;97227.69;;;15.22;90.73
6514;BME280;3290;47.716;9.070;2023-08-07T10:05:11;97234.28;;;15.63;85.68
6514;BME280;3290;47.716;9.070;2023-08-07T10:07:38;97233.50;;;15.95;86.05
6514;BME280;3290;47.716;9.070;2023-08-07T10:10:05;97225.72;;;15.89;92.21
6514;BME280;3290;47.716;9.070;2023-08-07T10:12:32;97227.50;;;16.48;94.42
6514;BME280;3290;47.716;9.070;2023-08-07T10:14:58;97229.09;;;16.71;95.32
6514;BME280;3290;47.716;9.070;2023-08-07T10:17:24;97232.63;;;16.76;91.42
6514;BME280;3290;47.716;9.070;2023-08-07T10:19:51;97224.38;;;17.89;87.95
6514;BME280;3290;47.716;9.070;2023-08-07T10:22:18;97225.34;;;19.47;89.43
6514;BME280;3290;47.716;9.070;2023-08-07T10:24:47;97218.81;;;19.03;80.48
6514;BME280;3290;47.716;9.070;2023-08-07T10:27:15;97217.91;;;19.39;80.92
6514;BME280;3290;47.716;9.070;2023-08-07T10:29:42;97213.09;;;19.46;78.25
6514;BME280;3290;47.716;9.070;2023-08-07T10:32:10;97216.88;;;19.69;80.17
6514;BME280;3290;47.716;9.070;2023-08-07T10:34:37;97222.25;;;19.84;77.83
6514;BME280;3290;47.716;9.070;2023-08-07T10:37:08;97228.56;;;19.59;80.99
6514;BME280;3290;47.716;9.070;2023-08-07T10:39:33;97240.41;;;19.22;80.83
6514;BME280;3290;47.716;9.070;2023-08-07T10:41:59;97231.59;;;19.06;77.71
6514;BME280;3290;47.716;9.070;2023-08-07T10:44:29;97233.09;;;19.58;83.26
6514;BME280;3290;47.716;9.070;2023-08-07T10:46:57;97228.31;;;18.94;80.64
6514;BME280;3290;47.716;9.070;2023-08-07T10:49:40;97229.84;;;18.40;80.90
6514;BME280;3290;47.716;9.070;2023-08-07T10:52:11;97236.94;;;18.70;80.21
6514;BME280;3290;47.716;9.070;2023-08-07T10:54:39;97231.75;;;18.49;81.04
6514;BME280;3290;47.716;9.070;2023-08-07T10:57:10;97224.19;;;18.26;81.23
6514;BME280;3290;47.716;9.070;2023-08-07T10:59:37;97229.19;;;17.65;80.90
6514;BME280;3290;47.716;9.070;2023-08-07T11:02:07;97228.38;;;17.65;81.90
6514;BME280;3290;47.716;9.070;2023-08-07T11:04:34;97238.25;;;17.43;81.10
6514;BME280;3290;47.716;9.070;2023-08-07T11:07:02;97228.28;;;17.81;77.13
6514;BME280;3290;47.716;9.070;2023-08-07T11:09:27;97236.66;;;18.00;75.05
6514;BME280;3290;47.716;9.070;2023-08-07T11:11:52;97228.84;;;18.14;75.85
6514;BME280;3290;47.716;9.070;2023-08-07T11:14:18;97227.69;;;18.73;77.55
6514;BME280;3290;47.716;9.070;2023-08-07T11:16:46;97225.50;;;18.65;76.13
6514;BME280;3290;47.716;9.070;2023-08-07T11:19:13;97226.25;;;18.19;76.05
6514;BME280;3290;47.716;9.070;2023-08-07T11:21:40;97228.31;;;18.12;75.28
6514;BME280;3290;47.716;9.070;2023-08-07T11:24:06;97227.44;;;18.07;74.41
6514;BME280;3290;47.716;9.070;2023-08-07T11:26:31;97228.09;;;18.60;74.69
6514;BME280;3290;47.716;9.070;2023-08-07T11:28:57;97229.72;;;18.61;71.84
6514;BME280;3290;47.716;9.070;2023-08-07T11:31:24;97225.97;;;17.90;71.43
6514;BME280;3290;47.716;9.070;2023-08-07T11:33:51;97225.25;;;18.25;73.15
6514;BME280;3290;47.716;9.070;2023-08-07T11:36:16;97231.50;;;18.09;73.80
6514;BME280;3290;47.716;9.070;2023-08-07T11:38:44;97234.66;;;17.54;74.29
6514;BME280;3290;47.716;9.070;2023-08-07T11:41:11;97227.78;;;18.10;72.07
6514;BME280;3290;47.716;9.070;2023-08-07T11:43:38;97224.13;;;17.90;71.63
6514;BME280;3290;47.716;9.070;2023-08-07T11:46:09;97222.22;;;18.12;69.87
6514;BME280;3290;47.716;9.070;2023-08-07T11:48:36;97221.88;;;17.77;70.85
6514;BME280;3290;47.716;9.070;2023-08-07T11:51:02;97218.81;;;18.21;66.50
6514;BME280;3290;47.716;9.070;2023-08-07T11:53:30;97223.91;;;19.15;66.72
6514;BME280;3290;47.716;9.070;2023-08-07T11:56:14;97213.38;;;19.54;67.10
6514;BME280;3290;47.716;9.070;2023-08-07T11:58:41;97225.66;;;18.94;69.02
6514;BME280;3290;47.716;9.070;2023-08-07T12:01:11;97223.19;;;18.37;72.33
6514;BME280;3290;47.716;9.070;2023-08-07T12:03:38;97237.75;;;18.71;72.26
6514;BME280;3290;47.716;9.070;2023-08-07T12:06:06;97223.50;;;18.91;70.28
6514;BME280;3290;47.716;9.070;2023-08-07T12:08:40;97231.56;;;19.01;70.97
6514;BME280;3290;47.716;9.070;2023-08-07T12:11:10;97235.19;;;18.90;70.69
6514;BME280;3290;47.716;9.070;2023-08-07T12:13:38;97232.44;;;18.76;71.57
6514;BME280;3290;47.716;9.070;2023-08-07T12:16:03;97244.50;;;18.47;74.05
6514;BME280;3290;47.716;9.070;2023-08-07T12:18:30;97239.00;;;18.58;76.63
6514;BME280;3290;47.716;9.070;2023-08-07T12:21:00;97235.53;;;18.58;77.48
6514;BME280;3290;47.716;9.070;2023-08-07T12:23:27;97238.41;;;18.97;76.60
6514;BME280;3290;47.716;9.070;2023-08-07T12:25:52;97232.06;;;18.98;72.00
6514;BME280;3290;47.716;9.070;2023-08-07T12:28:18;97234.38;;;19.41;75.03
6514;BME280;3290;47.716;9.070;2023-08-07T12:30:47;97226.66;;;19.39;73.56
6514;BME280;3290;47.716;9.070;2023-08-07T12:33:13;97224.88;;;19.79;73.67
6514;BME280;3290;47.716;9.070;2023-08-07T12:35:40;97218.53;;;20.10;68.14
6514;BME280;3290;47.716;9.070;2023-08-07T12:38:06;97218.22;;;20.76;67.70
6514;BME280;3290;47.716;9.070;2023-08-07T12:40:32;97216.66;;;20.25;70.26
6514;BME280;3290;47.716;9.070;2023-08-07T12:43:00;97210.50;;;20.74;70.44
6514;BME280;3290;47.716;9.070;2023-08-07T12:45:26;97212.09;;;20.55;68.71
6514;BME280;3290;47.716;9.070;2023-08-07T12:47:51;97216.38;;;20.42;67.91
6514;BME280;3290;47.716;9.070;2023-08-07T12:50:16;97213.72;;;20.51;69.27
6514;BME280;3290;47.716;9.070;2023-08-07T12:52:42;97217.47;;;20.31;67.02
6514;BME280;3290;47.716;9.070;2023-08-07T12:55:08;97220.53;;;19.44;67.33
6514;BME280;3290;47.716;9.070;2023-08-07T12:57:33;97217.66;;;19.55;68.40
6514;BME280;3290;47.716;9.070;2023-08-07T12:59:59;97234.25;;;19.11;70.84
6514;BME280;3290;47.716;9.070;2023-08-07T13:02:24;97230.09;;;18.38;69.73
6514;BME280;3290;47.716;9.070;2023-08-07T13:04:49;97234.59;;;18.79;71.98
6514;BME280;3290;47.716;9.070;2023-08-07T13:07:16;97234.41;;;18.90;66.58
6514;BME280;3290;47.716;9.070;2023-08-07T13:09:41;97229.31;;;18.84;67.33
6514;BME280;3290;47.716;9.070;2023-08-07T13:12:07;97227.31;;;18.59;65.36
6514;BME280;3290;47.716;9.070;2023-08-07T13:14:32;97230.22;;;18.58;66.03
6514;BME280;3290;47.716;9.070;2023-08-07T13:16:57;97232.44;;;18.71;69.06
6514;BME280;3290;47.716;9.070;2023-08-07T13:19:22;97225.81;;;19.24;68.01
6514;BME280;3290;47.716;9.070;2023-08-07T13:21:48;97223.53;;;18.96;66.86